sensor_id;sensor_type;location;lat;lon;timestamp;pressure;altitude;pressure_sealevel;temperature;humidity
64827;BME280;51265;53.972;12.286;2024-01-30T00:02:12;101951.91;;;1.39;100.00
64827;BME280;51265;53.972;12.286;2024-01-30T00:04:38;101959.84;;;1.34;100.00
64827;BME280;51265;53.972;12.286;2024-01-30T00:07:04;101956.47;;;1.26;100.00
64827;BME280;51265;53.972;12.286;2024-01-30T00:09:31;101948.09;;;1.14;100.00
64827;BME280;51265;53.972;12.286;2024-01-30T00:11:57;101946.38;;;1.13;100.00
64827;BME280;51265;53.972;12.286;2024-01-30T00:14:23;101958.53;;;1.23;100.00
64827;BME280;51265;53.972;12.286;2024-01-30T00:16:50;101971.09;;;1.31;100.00
64827;BME280;51265;53.972;12.286;2024-01-30T00:19:17;101965.88;;;1.36;100.00
64827;BME280;51265;53.972;12.286;2024-01-30T00:21:43;101970.25;;;1.37;100.00
64827;BME280;51265;53.972;12.286;2024-01-30T00:24:09;101971.53;;;1.35;100.00
64827;BME280;51265;53.972;12.286;2024-01-30T00:26:35;101964.41;;;1.27;100.00
64827;BME280;51265;53.972;12.286;2024-01-30T00:29:02;101954.34;;;1.21;100.00
64827;BME280;51265;53.972;12.286;2024-01-30T00:31:28;101967.34;;;1.26;100.00
64827;BME280;51265;53.972;12.286;2024-01-30T00:33:55;101966.47;;;1.25;100.00
64827;BME280;51265;53.972;12.286;2024-01-30T00:36:21;101963.53;;;1.13;100.00
64827;BME280;51265;53.972;12.286;2024-01-30T00:38:47;101958.06;;;1.07;100.00
64827;BME280;51265;53.972;12.286;2024-01-30T00:41:14;101956.41;;;1.06;100.00
64827;BME280;51265;53.972;12.286;2024-01-30T00:43:40;101955.56;;;1.05;100.00
64827;BME280;51265;53.972;12.286;2024-01-30T00:46:06;101966.44;;;1.05;100.00
64827;BME280;51265;53.972;12.286;2024-01-30T00:48:32;101956.59;;;0.97;100.00
64827;BME280;51265;53.972;12.286;2024-01-30T00:50:58;101972.47;;;1.01;100.00
64827;BME280;51265;53.972;12.286;2024-01-30T00:53:25;101953.44;;;0.94;100.00
64827;BME280;51265;53.972;12.286;2024-01-30T00:55:51;101955.88;;;0.82;100.00
64827;BME280;51265;53.972;12.286;2024-01-30T00:58:17;101948.75;;;0.74;100.00
64827;BME280;51265;53.972;12.286;2024-01-30T01:00:45;101952.72;;;0.72;100.00
64827;BME280;51265;53.972;12.286;2024-01-30T01:03:11;101956.22;;;0.66;100.00
64827;BME280;51265;53.972;12.286;2024-01-30T01:05:37;101952.44;;;0.60;100.00
64827;BME280;51265;53.972;12.286;2024-01-30T01:08:04;101950.34;;;0.56;100.00
64827;BME280;51265;53.972;12.286;2024-01-30T01:10:30;101951.13;;;0.49;100.00
64827;BME280;51265;53.972;12.286;2024-01-30T01:12:56;101947.78;;;0.47;100.00
64827;BME280;51265;53.972;12.286;2024-01-30T01:15:22;101954.88;;;0.48;100.00
64827;BME280;51265;53.972;12.286;2024-01-30T01:17:49;101952.16;;;0.48;100.00
64827;BME280;51265;53.972;12.286;2024-01-30T01:20:15;101956.53;;;0.49;100.00
64827;BME280;51265;53.972;12.286;2024-01-30T01:22:41;101956.53;;;0.49;100.00
64827;BME280;51265;53.972;12.286;2024-01-30T01:25:08;101959.47;;;0.48;100.00
64827;BME280;51265;53.972;12.286;2024-01-30T01:27:36;101963.84;;;0.49;100.00
64827;BME280;51265;53.972;12.286;2024-01-30T01:30:10;101964.06;;;0.54;100.00
64827;BME280;51265;53.972;12.286;2024-01-30T01:32:36;101963.28;;;0.60;100.00
64827;BME280;51265;53.972;12.286;2024-01-30T01:35:02;101970.44;;;0.68;100.00
64827;BME280;51265;53.972;12.286;2024-01-30T01:37:31;101971.28;;;0.75;100.00
64827;BME280;51265;53.972;12.286;2024-01-30T01:39:57;101965.06;;;0.81;100.00
64827;BME280;51265;53.972;12.286;2024-01-30T01:42:24;101970.09;;;0.84;100.00
64827;BME280;51265;53.972;12.286;2024-01-30T01:44:50;101964.47;;;0.86;100.00
64827;BME280;51265;53.972;12.286;2024-01-30T01:47:16;101968.00;;;0.86;100.00
64827;BME280;51265;53.972;12.286;2024-01-30T01:49:42;101970.94;;;0.85;100.00
64827;BME280;51265;53.972;12.286;2024-01-30T01:52:08;101967.56;;;0.83;100.00
64827;BME280;51265;53.972;12.286;2024-01-30T01:54:35;101962.75;;;0.78;100.00
64827;BME280;51265;53.972;12.286;2024-01-30T01:57:04;101955.44;;;0.72;100.00
64827;BME280;51265;53.972;12.286;2024-01-30T01:59:30;101958.31;;;0.64;100.00
64827;BME280;51265;53.972;12.286;2024-01-30T02:01:56;101954.94;;;0.55;100.00
64827;BME280;51265;53.972;12.286;2024-01-30T02:04:23;101949.84;;;0.45;100.00
64827;BME280;51265;53.972;12.286;2024-01-30T02:06:49;101947.13;;;0.39;100.00
64827;BME280;51265;53.972;12.286;2024-01-30T02:09:15;101953.59;;;0.44;100.00
64827;BME280;51265;53.972;12.286;2024-01-30T02:11:42;101941.00;;;0.30;100.00
64827;BME280;51265;53.972;12.286;2024-01-30T02:14:08;101953.28;;;0.26;100.00
64827;BME280;51265;53.972;12.286;2024-01-30T02:16:34;101952.25;;;0.27;100.00
64827;BME280;51265;53.972;12.286;2024-01-30T02:19:00;101951.03;;;0.30;100.00
64827;BME280;51265;53.972;12.286;2024-01-30T02:38:18;101950.25;;;0.42;100.00
64827;BME280;51265;53.972;12.286;2024-01-30T02:40:45;101951.94;;;0.43;100.00
64827;BME280;51265;53.972;12.286;2024-01-30T02:43:11;101954.44;;;0.45;100.00
64827;BME280;51265;53.972;12.286;2024-01-30T02:45:37;101947.97;;;0.46;100.00
64827;BME280;51265;53.972;12.286;2024-01-30T02:48:04;101952.38;;;0.47;100.00
64827;BME280;51265;53.972;12.286;2024-01-30T02:50:30;101958.63;;;0.47;100.00
64827;BME280;51265;53.972;12.286;2024-01-30T02:52:56;101949.44;;;0.48;100.00
64827;BME280;51265;53.972;12.286;2024-01-30T02:55:22;101967.00;;;0.53;100.00
64827;BME280;51265;53.972;12.286;2024-01-30T02:57:48;101964.94;;;0.55;100.00
64827;BME280;51265;53.972;12.286;2024-01-30T03:00:15;101961.19;;;0.56;100.00
64827;BME280;51265;53.972;12.286;2024-01-30T03:02:41;101961.56;;;0.53;100.00
64827;BME280;51265;53.972;12.286;2024-01-30T03:05:07;101966.59;;;0.56;100.00
64827;BME280;51265;53.972;12.286;2024-01-30T03:07:34;101963.69;;;0.57;100.00
64827;BME280;51265;53.972;12.286;2024-01-30T03:10:00;101972.03;;;0.62;100.00
64827;BME280;51265;53.972;12.286;2024-01-30T03:12:26;101976.69;;;0.75;100.00
64827;BME280;51265;53.972;12.286;2024-01-30T03:14:52;101976.38;;;0.91;100.00
64827;BME280;51265;53.972;12.286;2024-01-30T03:17:18;101985.03;;;1.15;100.00
64827;BME280;51265;53.972;12.286;2024-01-30T03:19:45;101984.88;;;1.36;100.00
64827;BME280;51265;53.972;12.286;2024-01-30T03:22:11;101985.78;;;1.57;100.00
64827;BME280;51265;53.972;12.286;2024-01-30T03:24:37;101994.16;;;1.75;100.00
64827;BME280;51265;53.972;12.286;2024-01-30T03:27:03;101990.63;;;1.94;100.00
64827;BME280;51265;53.972;12.286;2024-01-30T03:29:29;101989.56;;;2.09;100.00
64827;BME280;51265;53.972;12.286;2024-01-30T03:31:55;101978.31;;;2.18;100.00
64827;BME280;51265;53.972;12.286;2024-01-30T03:34:21;101975.56;;;2.25;100.00
64827;BME280;51265;53.972;12.286;2024-01-30T03:36:48;101974.50;;;2.33;100.00
64827;BME280;51265;53.972;12.286;2024-01-30T03:39:14;101976.19;;;2.40;100.00
64827;BME280;51265;53.972;12.286;2024-01-30T03:41:42;101962.38;;;2.48;100.00
64827;BME280;51265;53.972;12.286;2024-01-30T03:44:10;101966.09;;;2.54;100.00
64827;BME280;51265;53.972;12.286;2024-01-30T03:46:36;101958.16;;;2.53;100.00
64827;BME280;51265;53.972;12.286;2024-01-30T03:49:03;101953.56;;;2.60;100.00
64827;BME280;51265;53.972;12.286;2024-01-30T03:51:29;101950.59;;;2.68;100.00
64827;BME280;51265;53.972;12.286;2024-01-30T03:53:55;101943.47;;;2.67;100.00
64827;BME280;51265;53.972;12.286;2024-01-30T03:56:21;101937.66;;;2.57;100.00
64827;BME280;51265;53.972;12.286;2024-01-30T03:58:48;101942.28;;;2.49;100.00
64827;BME280;51265;53.972;12.286;2024-01-30T04:01:14;101925.13;;;2.42;100.00
64827;BME280;51265;53.972;12.286;2024-01-30T04:03:41;101927.66;;;2.37;100.00
64827;BME280;51265;53.972;12.286;2024-01-30T04:06:08;101934.16;;;2.36;100.00
64827;BME280;51265;53.972;12.286;2024-01-30T04:08:34;101922.03;;;2.32;100.00
64827;BME280;51265;53.972;12.286;2024-01-30T04:11:04;101926.41;;;2.33;100.00
64827;BME280;51265;53.972;12.286;2024-01-30T04:13:32;101936.44;;;2.33;100.00
64827;BME280;51265;53.972;12.286;2024-01-30T04:15:59;101939.59;;;2.36;100.00
64827;BME280;51265;53.972;12.286;2024-01-30T04:18:27;101937.28;;;2.40;100.00
64827;BME280;51265;53.972;12.286;2024-01-30T04:20:54;101945.41;;;2.46;100.00
64827;BME280;51265;53.972;12.286;2024-01-30T04:23:20;101948.75;;;2.55;100.00
64827;BME280;51265;53.972;12.286;2024-01-30T04:25:46;101950.00;;;2.59;100.00
64827;BME280;51265;53.972;12.286;2024-01-30T04:28:13;101941.81;;;2.66;100.00
64827;BME280;51265;53.972;12.286;2024-01-30T04:30:39;101955.59;;;2.71;100.00
64827;BME280;51265;53.972;12.286;2024-01-30T04:33:05;101953.50;;;2.73;100.00
64827;BME280;51265;53.972;12.286;2024-01-30T04:35:32;101956.41;;;2.78;100.00
64827;BME280;51265;53.972;12.286;2024-01-30T04:37:58;101943.88;;;2.77;100.00
64827;BME280;51265;53.972;12.286;2024-01-30T04:40:24;101939.69;;;2.74;100.00
64827;BME280;51265;53.972;12.286;2024-01-30T04:42:50;101930.69;;;2.74;100.00
64827;BME280;51265;53.972;12.286;2024-01-30T04:45:17;101937.19;;;2.73;100.00
64827;BME280;51265;53.972;12.286;2024-01-30T04:47:43;101924.66;;;2.65;100.00
64827;BME280;51265;53.972;12.286;2024-01-30T04:50:09;101906.69;;;2.58;100.00
64827;BME280;51265;53.972;12.286;2024-01-30T04:52:36;101911.31;;;2.50;100.00
64827;BME280;51265;53.972;12.286;2024-01-30T04:55:02;101905.47;;;2.40;100.00
64827;BME280;51265;53.972;12.286;2024-01-30T04:57:28;101906.78;;;2.31;100.00
64827;BME280;51265;53.972;12.286;2024-01-30T04:59:55;101904.06;;;2.24;100.00
64827;BME280;51265;53.972;12.286;2024-01-30T05:02:21;101897.59;;;2.12;100.00
64827;BME280;51265;53.972;12.286;2024-01-30T05:04:47;101890.91;;;2.08;100.00
64827;BME280;51265;53.972;12.286;2024-01-30T05:07:13;101901.34;;;2.05;100.00
64827;BME280;51265;53.972;12.286;2024-01-30T05:09:40;101904.28;;;1.96;100.00
64827;BME280;51265;53.972;12.286;2024-01-30T05:12:07;101895.75;;;1.86;100.00
64827;BME280;51265;53.972;12.286;2024-01-30T05:14:33;101890.94;;;1.75;100.00
64827;BME280;51265;53.972;12.286;2024-01-30T05:16:59;101888.03;;;1.63;100.00
64827;BME280;51265;53.972;12.286;2024-01-30T05:19:25;101883.41;;;1.57;100.00
64827;BME280;51265;53.972;12.286;2024-01-30T05:21:51;101885.09;;;1.52;100.00
64827;BME280;51265;53.972;12.286;2024-01-30T05:24:18;101881.13;;;1.47;100.00
64827;BME280;51265;53.972;12.286;2024-01-30T05:26:45;101876.31;;;1.43;100.00
64827;BME280;51265;53.972;12.286;2024-01-30T05:29:11;101873.38;;;1.38;100.00
64827;BME280;51265;53.972;12.286;2024-01-30T05:31:38;101880.47;;;1.32;100.00
64827;BME280;51265;53.972;12.286;2024-01-30T05:34:04;101877.56;;;1.27;100.00
64827;BME280;51265;53.972;12.286;2024-01-30T05:36:30;101887.56;;;1.20;100.00
64827;BME280;51265;53.972;12.286;2024-01-30T05:38:57;101876.91;;;1.18;100.00
64827;BME280;51265;53.972;12.286;2024-01-30T05:41:23;101879.19;;;1.15;100.00
64827;BME280;51265;53.972;12.286;2024-01-30T05:43:49;101880.22;;;1.07;100.00
64827;BME280;51265;53.972;12.286;2024-01-30T05:46:15;101882.94;;;1.01;100.00
64827;BME280;51265;53.972;12.286;2024-01-30T05:48:42;101878.31;;;0.94;100.00
64827;BME280;51265;53.972;12.286;2024-01-30T05:51:08;101876.00;;;0.91;100.00
64827;BME280;51265;53.972;12.286;2024-01-30T05:53:34;101881.25;;;0.93;100.00
64827;BME280;51265;53.972;12.286;2024-01-30T05:56:01;101882.47;;;0.90;100.00
64827;BME280;51265;53.972;12.286;2024-01-30T05:58:28;101886.22;;;0.89;100.00
64827;BME280;51265;53.972;12.286;2024-01-30T06:00:54;101887.91;;;0.90;100.00
64827;BME280;51265;53.972;12.286;2024-01-30T06:03:20;101888.94;;;0.96;100.00
64827;BME280;51265;53.972;12.286;2024-01-30T06:05:47;101887.50;;;1.00;100.00
64827;BME280;51265;53.972;12.286;2024-01-30T06:08:13;101895.41;;;0.95;100.00
64827;BME280;51265;53.972;12.286;2024-01-30T06:10:39;101891.84;;;0.88;100.00
64827;BME280;51265;53.972;12.286;2024-01-30T06:13:06;101889.56;;;0.91;100.00
64827;BME280;51265;53.972;12.286;2024-01-30T06:15:32;101888.31;;;0.94;100.00
64827;BME280;51265;53.972;12.286;2024-01-30T06:17:59;101881.25;;;0.93;100.00
64827;BME280;51265;53.972;12.286;2024-01-30T06:20:25;101880.19;;;0.94;100.00
64827;BME280;51265;53.972;12.286;2024-01-30T06:22:51;101875.81;;;0.93;100.00
64827;BME280;51265;53.972;12.286;2024-01-30T06:25:17;101883.31;;;0.91;100.00
64827;BME280;51265;53.972;12.286;2024-01-30T06:27:43;101876.84;;;0.85;100.00
64827;BME280;51265;53.972;12.286;2024-01-30T06:30:10;101880.78;;;0.83;100.00
64827;BME280;51265;53.972;12.286;2024-01-30T06:32:37;101887.84;;;0.77;100.00
64827;BME280;51265;53.972;12.286;2024-01-30T06:35:03;101886.19;;;0.76;100.00
64827;BME280;51265;53.972;12.286;2024-01-30T06:37:30;101883.88;;;0.73;100.00
64827;BME280;51265;53.972;12.286;2024-01-30T06:39:56;101879.31;;;0.80;100.00
64827;BME280;51265;53.972;12.286;2024-01-30T06:42:22;101876.63;;;0.80;100.00
64827;BME280;51265;53.972;12.286;2024-01-30T06:44:48;101884.56;;;0.88;100.00
64827;BME280;51265;53.972;12.286;2024-01-30T06:47:14;101888.75;;;0.97;100.00
64827;BME280;51265;53.972;12.286;2024-01-30T06:49:40;101895.44;;;1.02;100.00
64827;BME280;51265;53.972;12.286;2024-01-30T06:52:08;101879.78;;;1.04;100.00
64827;BME280;51265;53.972;12.286;2024-01-30T06:54:34;101883.34;;;1.04;100.00
64827;BME280;51265;53.972;12.286;2024-01-30T06:57:00;101888.19;;;1.09;100.00
64827;BME280;51265;53.972;12.286;2024-01-30T06:59:26;101887.13;;;1.10;100.00
64827;BME280;51265;53.972;12.286;2024-01-30T07:01:53;101899.66;;;1.17;100.00
64827;BME280;51265;53.972;12.286;2024-01-30T07:04:19;101889.66;;;1.18;100.00
64827;BME280;51265;53.972;12.286;2024-01-30T07:06:45;101884.66;;;1.21;100.00
64827;BME280;51265;53.972;12.286;2024-01-30T07:09:12;101886.75;;;1.26;100.00
64827;BME280;51265;53.972;12.286;2024-01-30T07:11:38;101887.56;;;1.33;100.00
64827;BME280;51265;53.972;12.286;2024-01-30T07:14:04;101883.19;;;1.32;100.00
64827;BME280;51265;53.972;12.286;2024-01-30T07:16:30;101895.09;;;1.31;100.00
64827;BME280;51265;53.972;12.286;2024-01-30T07:18:57;101892.59;;;1.36;100.00
64827;BME280;51265;53.972;12.286;2024-01-30T07:21:23;101878.81;;;1.44;100.00
64827;BME280;51265;53.972;12.286;2024-01-30T07:23:54;101883.44;;;1.51;100.00
64827;BME280;51265;53.972;12.286;2024-01-30T07:26:21;101883.41;;;1.57;100.00
64827;BME280;51265;53.972;12.286;2024-01-30T07:28:47;101889.69;;;1.58;100.00
64827;BME280;51265;53.972;12.286;2024-01-30T07:31:14;101885.50;;;1.62;100.00
64827;BME280;51265;53.972;12.286;2024-01-30T07:33:40;101888.88;;;1.64;100.00
64827;BME280;51265;53.972;12.286;2024-01-30T07:36:06;101888.03;;;1.70;100.00
64827;BME280;51265;53.972;12.286;2024-01-30T07:38:32;101889.69;;;1.78;100.00
64827;BME280;51265;53.972;12.286;2024-01-30T07:40:58;101889.25;;;1.87;100.00
64827;BME280;51265;53.972;12.286;2024-01-30T07:43:25;101885.50;;;1.95;100.00
64827;BME280;51265;53.972;12.286;2024-01-30T07:45:51;101885.91;;;1.98;100.00
64827;BME280;51265;53.972;12.286;2024-01-30T07:48:18;101887.16;;;2.03;100.00
64827;BME280;51265;53.972;12.286;2024-01-30T07:50:44;101900.13;;;2.14;100.00
64827;BME280;51265;53.972;12.286;2024-01-30T07:53:10;101904.69;;;2.20;100.00
64827;BME280;51265;53.972;12.286;2024-01-30T07:55:37;101901.34;;;2.31;100.00
64827;BME280;51265;53.972;12.286;2024-01-30T07:58:03;101905.06;;;2.43;100.00
64827;BME280;51265;53.972;12.286;2024-01-30T08:00:30;101893.72;;;2.53;100.00
64827;BME280;51265;53.972;12.286;2024-01-30T08:02:56;101895.81;;;2.58;100.00
64827;BME280;51265;53.972;12.286;2024-01-30T08:05:23;101891.38;;;2.70;100.00
64827;BME280;51265;53.972;12.286;2024-01-30T08:07:49;101890.25;;;2.84;100.00
64827;BME280;51265;53.972;12.286;2024-01-30T08:10:16;101879.09;;;2.92;100.00
64827;BME280;51265;53.972;12.286;2024-01-30T08:12:44;101882.03;;;2.97;100.00
64827;BME280;51265;53.972;12.286;2024-01-30T08:15:11;101878.19;;;3.05;100.00
64827;BME280;51265;53.972;12.286;2024-01-30T08:17:39;101880.47;;;3.15;100.00
64827;BME280;51265;53.972;12.286;2024-01-30T08:20:06;101875.81;;;3.22;100.00
64827;BME280;51265;53.972;12.286;2024-01-30T08:22:34;101871.59;;;3.26;100.00
64827;BME280;51265;53.972;12.286;2024-01-30T08:25:00;101867.34;;;3.30;100.00
64827;BME280;51265;53.972;12.286;2024-01-30T08:27:26;101870.69;;;3.39;100.00
64827;BME280;51265;53.972;12.286;2024-01-30T08:29:52;101870.00;;;3.43;100.00
64827;BME280;51265;53.972;12.286;2024-01-30T08:32:19;101862.00;;;3.48;100.00
64827;BME280;51265;53.972;12.286;2024-01-30T08:34:45;101854.28;;;3.45;100.00
64827;BME280;51265;53.972;12.286;2024-01-30T08:37:11;101859.72;;;3.45;100.00
64827;BME280;51265;53.972;12.286;2024-01-30T08:39:38;101854.91;;;3.47;100.00
64827;BME280;51265;53.972;12.286;2024-01-30T08:42:04;101852.19;;;3.47;100.00
64827;BME280;51265;53.972;12.286;2024-01-30T08:44:30;101849.78;;;3.58;100.00
64827;BME280;51265;53.972;12.286;2024-01-30T08:46:57;101849.06;;;3.69;100.00
64827;BME280;51265;53.972;12.286;2024-01-30T08:49:23;101849.06;;;3.69;100.00
64827;BME280;51265;53.972;12.286;2024-01-30T08:51:49;101851.81;;;3.87;100.00
64827;BME280;51265;53.972;12.286;2024-01-30T08:54:16;101850.16;;;3.86;100.00
64827;BME280;51265;53.972;12.286;2024-01-30T08:56:43;101857.13;;;4.00;100.00
64827;BME280;51265;53.972;12.286;2024-01-30T08:59:10;101858.75;;;4.08;100.00
64827;BME280;51265;53.972;12.286;2024-01-30T09:01:36;101857.00;;;4.14;100.00
64827;BME280;51265;53.972;12.286;2024-01-30T09:04:02;101860.63;;;4.26;100.00
64827;BME280;51265;53.972;12.286;2024-01-30T09:06:28;101857.31;;;4.42;100.00
64827;BME280;51265;53.972;12.286;2024-01-30T09:08:55;101858.06;;;4.49;100.00
64827;BME280;51265;53.972;12.286;2024-01-30T09:11:21;101855.28;;;4.56;100.00
64827;BME280;51265;53.972;12.286;2024-01-30T09:13:47;101854.28;;;4.69;100.00
64827;BME280;51265;53.972;12.286;2024-01-30T09:16:13;101849.09;;;4.79;100.00
64827;BME280;51265;53.972;12.286;2024-01-30T09:18:43;101847.69;;;4.88;100.00
64827;BME280;51265;53.972;12.286;2024-01-30T09:21:09;101845.03;;;5.00;100.00
64827;BME280;51265;53.972;12.286;2024-01-30T09:23:35;101836.75;;;5.07;100.00
64827;BME280;51265;53.972;12.286;2024-01-30T09:26:02;101833.06;;;5.13;100.00
64827;BME280;51265;53.972;12.286;2024-01-30T09:28:28;101810.75;;;5.16;100.00
64827;BME280;51265;53.972;12.286;2024-01-30T09:30:54;101804.22;;;5.17;100.00
64827;BME280;51265;53.972;12.286;2024-01-30T09:33:21;101792.72;;;5.15;100.00
64827;BME280;51265;53.972;12.286;2024-01-30T09:35:47;101786.06;;;5.11;100.00
64827;BME280;51265;53.972;12.286;2024-01-30T09:38:13;101782.38;;;5.17;100.00
64827;BME280;51265;53.972;12.286;2024-01-30T09:40:39;101779.66;;;5.29;100.00
64827;BME280;51265;53.972;12.286;2024-01-30T09:43:05;101776.22;;;5.33;100.00
64827;BME280;51265;53.972;12.286;2024-01-30T09:45:32;101779.91;;;5.50;100.00
64827;BME280;51265;53.972;12.286;2024-01-30T09:47:59;101766.38;;;5.56;100.00
64827;BME280;51265;53.972;12.286;2024-01-30T09:50:26;101758.31;;;5.61;100.00
64827;BME280;51265;53.972;12.286;2024-01-30T09:52:55;101752.84;;;5.61;100.00
64827;BME280;51265;53.972;12.286;2024-01-30T09:55:21;101754.16;;;5.58;100.00
64827;BME280;51265;53.972;12.286;2024-01-30T09:57:48;101755.13;;;5.52;100.00
64827;BME280;51265;53.972;12.286;2024-01-30T10:00:14;101742.13;;;5.47;100.00
64827;BME280;51265;53.972;12.286;2024-01-30T10:02:40;101751.66;;;5.57;100.00
64827;BME280;51265;53.972;12.286;2024-01-30T10:05:08;101748.56;;;5.53;100.00
64827;BME280;51265;53.972;12.286;2024-01-30T10:07:34;101747.97;;;5.51;100.00
64827;BME280;51265;53.972;12.286;2024-01-30T10:10:00;101747.75;;;5.53;100.00
64827;BME280;51265;53.972;12.286;2024-01-30T10:12:27;101737.84;;;5.52;100.00
64827;BME280;51265;53.972;12.286;2024-01-30T10:14:53;101733.56;;;5.56;100.00
64827;BME280;51265;53.972;12.286;2024-01-30T10:17:20;101719.56;;;5.64;100.00
64827;BME280;51265;53.972;12.286;2024-01-30T10:19:47;101723.59;;;5.73;100.00
64827;BME280;51265;53.972;12.286;2024-01-30T10:22:13;101721.44;;;5.75;100.00
64827;BME280;51265;53.972;12.286;2024-01-30T10:24:40;101724.44;;;5.73;100.00
64827;BME280;51265;53.972;12.286;2024-01-30T10:27:06;101723.47;;;5.80;100.00
64827;BME280;51265;53.972;12.286;2024-01-30T10:29:32;101729.91;;;5.85;100.00
64827;BME280;51265;53.972;12.286;2024-01-30T10:32:03;101733.06;;;6.06;100.00
64827;BME280;51265;53.972;12.286;2024-01-30T10:34:30;101721.53;;;6.15;100.00
64827;BME280;51265;53.972;12.286;2024-01-30T10:37:07;101721.69;;;6.37;100.00
64827;BME280;51265;53.972;12.286;2024-01-30T10:39:37;101720.91;;;6.54;100.00
64827;BME280;51265;53.972;12.286;2024-01-30T10:42:05;101714.63;;;6.70;100.00
64827;BME280;51265;53.972;12.286;2024-01-30T10:47:12;101690.97;;;7.31;100.00
64827;BME280;51265;53.972;12.286;2024-01-30T10:49:42;101677.34;;;7.53;100.00
64827;BME280;51265;53.972;12.286;2024-01-30T10:52:09;101672.31;;;7.67;99.56
64827;BME280;51265;53.972;12.286;2024-01-30T10:54:37;101664.41;;;7.92;98.28
64827;BME280;51265;53.972;12.286;2024-01-30T10:57:04;101650.22;;;8.01;97.02
64827;BME280;51265;53.972;12.286;2024-01-30T10:59:32;101622.78;;;8.01;95.63
64827;BME280;51265;53.972;12.286;2024-01-30T11:02:00;101605.16;;;7.91;95.02
64827;BME280;51265;53.972;12.286;2024-01-30T11:04:26;101591.31;;;7.81;94.31
64827;BME280;51265;53.972;12.286;2024-01-30T11:06:52;101604.56;;;7.89;94.84
64827;BME280;51265;53.972;12.286;2024-01-30T11:09:20;101607.38;;;7.94;94.88
64827;BME280;51265;53.972;12.286;2024-01-30T11:11:58;101602.91;;;7.88;94.73
64827;BME280;51265;53.972;12.286;2024-01-30T11:14:31;101601.75;;;7.84;95.04
64827;BME280;51265;53.972;12.286;2024-01-30T11:16:58;101598.97;;;7.79;95.14
64827;BME280;51265;53.972;12.286;2024-01-30T11:19:25;101592.16;;;7.82;95.01
64827;BME280;51265;53.972;12.286;2024-01-30T11:21:53;101598.50;;;7.87;94.73
64827;BME280;51265;53.972;12.286;2024-01-30T11:24:20;101599.19;;;7.99;94.82
64827;BME280;51265;53.972;12.286;2024-01-30T11:26:54;101602.09;;;8.15;94.23
64827;BME280;51265;53.972;12.286;2024-01-30T11:29:29;101596.81;;;8.35;93.47
64827;BME280;51265;53.972;12.286;2024-01-30T11:31:57;101588.78;;;8.56;92.77
64827;BME280;51265;53.972;12.286;2024-01-30T11:34:24;101583.69;;;8.69;92.14
64827;BME280;51265;53.972;12.286;2024-01-30T11:37:09;101570.09;;;8.90;90.51
64827;BME280;51265;53.972;12.286;2024-01-30T11:39:38;101552.19;;;8.82;89.74
64827;BME280;51265;53.972;12.286;2024-01-30T11:42:04;101557.28;;;9.06;89.51
64827;BME280;51265;53.972;12.286;2024-01-30T11:44:31;101548.53;;;9.14;88.72
64827;BME280;51265;53.972;12.286;2024-01-30T11:46:57;101527.63;;;9.08;87.92
64827;BME280;51265;53.972;12.286;2024-01-30T11:49:23;101521.00;;;9.04;87.67
64827;BME280;51265;53.972;12.286;2024-01-30T11:51:50;101540.34;;;9.24;88.20
64827;BME280;51265;53.972;12.286;2024-01-30T11:54:16;101537.13;;;9.42;88.19
64827;BME280;51265;53.972;12.286;2024-01-30T11:56:43;101525.84;;;9.44;88.27
64827;BME280;51265;53.972;12.286;2024-01-30T11:59:09;101532.75;;;9.52;87.98
64827;BME280;51265;53.972;12.286;2024-01-30T12:01:36;101507.41;;;9.39;87.34
64827;BME280;51265;53.972;12.286;2024-01-30T12:04:02;101509.63;;;9.47;86.78
64827;BME280;51265;53.972;12.286;2024-01-30T12:06:29;101504.66;;;9.44;86.90
64827;BME280;51265;53.972;12.286;2024-01-30T12:08:59;101493.03;;;9.17;86.65
64827;BME280;51265;53.972;12.286;2024-01-30T12:11:26;101501.56;;;9.20;86.94
64827;BME280;51265;53.972;12.286;2024-01-30T12:13:53;101502.84;;;9.03;87.44
64827;BME280;51265;53.972;12.286;2024-01-30T12:16:20;101496.78;;;8.95;87.86
64827;BME280;51265;53.972;12.286;2024-01-30T12:18:47;101505.53;;;8.87;88.39
64827;BME280;51265;53.972;12.286;2024-01-30T12:21:16;101510.44;;;8.85;88.80
64827;BME280;51265;53.972;12.286;2024-01-30T12:23:42;101513.69;;;8.77;89.50
64827;BME280;51265;53.972;12.286;2024-01-30T12:26:09;101516.00;;;8.90;89.72
64827;BME280;51265;53.972;12.286;2024-01-30T12:28:36;101514.34;;;8.94;89.21
64827;BME280;51265;53.972;12.286;2024-01-30T12:31:03;101507.19;;;8.88;89.07
64827;BME280;51265;53.972;12.286;2024-01-30T12:33:30;101504.44;;;8.93;89.21
64827;BME280;51265;53.972;12.286;2024-01-30T12:36:01;101499.84;;;9.04;88.30
64827;BME280;51265;53.972;12.286;2024-01-30T12:38:29;101490.72;;;8.98;88.36
64827;BME280;51265;53.972;12.286;2024-01-30T12:40:56;101495.19;;;9.05;88.53
64827;BME280;51265;53.972;12.286;2024-01-30T12:43:23;101495.41;;;8.98;88.37
64827;BME280;51265;53.972;12.286;2024-01-30T12:45:52;101509.41;;;8.96;88.65
64827;BME280;51265;53.972;12.286;2024-01-30T12:48:18;101512.66;;;8.88;89.13
64827;BME280;51265;53.972;12.286;2024-01-30T12:50:45;101515.94;;;8.85;89.38
64827;BME280;51265;53.972;12.286;2024-01-30T12:53:11;101522.53;;;8.84;89.55
64827;BME280;51265;53.972;12.286;2024-01-30T12:55:38;101512.84;;;8.71;90.05
64827;BME280;51265;53.972;12.286;2024-01-30T12:58:04;101522.16;;;8.65;90.28
64827;BME280;51265;53.972;12.286;2024-01-30T13:00:31;101525.09;;;8.59;90.88